Time;durP1;ratioP1;P1;durP2;ratioP2;P2;SDS_P1;SDS_P2;PMS_P1;PMS_P2;Temp;Humidity;BMP_temperature;BMP_pressure;BME280_temperature;BME280_humidity;BME280_pressure;Samples;Min_cycle;Max_cycle;Signal;HPM_P1;HPM_P2
2023/03/15 00:00:09;;;;;;;2.10;1.10;;;23.40;46.30;;;;;;4985277;28;20030;-66
2023/03/15 00:02:35;;;;;;;2.13;1.25;;;23.40;46.40;;;;;;4988370;28;20030;-66
2023/03/15 00:05:01;;;;;;;1.92;1.15;;;23.40;46.40;;;;;;4985075;28;20030;-66
2023/03/15 00:07:27;;;;;;;2.42;1.20;;;23.40;46.40;;;;;;4987854;28;20537;-66
2023/03/15 00:09:53;;;;;;;2.20;1.20;;;23.40;46.50;;;;;;4984720;28;20027;-66
2023/03/15 00:12:21;;;;;;;2.13;1.20;;;23.30;46.40;;;;;;4984766;28;20507;-66
2023/03/15 00:14:47;;;;;;;2.27;1.20;;;23.30;46.40;;;;;;4986363;28;20026;-66
2023/03/15 00:17:13;;;;;;;2.83;1.30;;;23.30;46.50;;;;;;4986227;28;20034;-66
2023/03/15 00:19:39;;;;;;;2.10;1.10;;;23.20;46.40;;;;;;4985656;28;20033;-66
2023/03/15 00:22:04;;;;;;;2.63;1.30;;;23.20;46.40;;;;;;4987065;28;20023;-66
2023/03/15 00:24:30;;;;;;;2.65;1.25;;;23.20;46.50;;;;;;4985595;28;20023;-67
2023/03/15 00:26:55;;;;;;;2.30;1.20;;;23.20;46.50;;;;;;4984703;28;20104;-66
2023/03/15 00:29:21;;;;;;;2.38;1.25;;;23.20;46.50;;;;;;4985505;28;20037;-66
2023/03/15 00:31:47;;;;;;;2.17;1.10;;;23.20;46.50;;;;;;5003430;28;20448;-66
2023/03/15 00:34:12;;;;;;;2.45;1.60;;;23.10;46.40;;;;;;4980109;28;20035;-66
2023/03/15 00:36:42;;;;;;;2.17;1.13;;;23.10;46.50;;;;;;4986138;28;20031;-67
2023/03/15 00:39:08;;;;;;;2.45;1.13;;;23.10;46.50;;;;;;4985170;28;20356;-66
2023/03/15 00:41:34;;;;;;;2.28;1.17;;;23.00;46.50;;;;;;4983365;28;20089;-66
2023/03/15 00:43:59;;;;;;;2.22;1.13;;;23.10;46.60;;;;;;4986438;28;20030;-66
2023/03/15 00:46:25;;;;;;;2.63;1.38;;;23.00;46.50;;;;;;4985666;28;20034;-66
2023/03/15 00:48:51;;;;;;;2.00;1.08;;;23.00;46.60;;;;;;4986516;28;20035;-66
2023/03/15 00:51:20;;;;;;;2.35;1.27;;;23.00;46.60;;;;;;4983313;28;20054;-66
2023/03/15 00:53:47;;;;;;;2.05;1.10;;;23.00;46.60;;;;;;5000088;28;20030;-66
2023/03/15 00:56:16;;;;;;;2.13;1.13;;;23.00;47.20;;;;;;4989164;28;20038;-66
2023/03/15 00:58:43;;;;;;;1.83;0.98;;;23.00;46.60;;;;;;4988604;28;20137;-66
2023/03/15 01:01:20;;;;;;;1.58;1.00;;;22.90;46.60;;;;;;4984322;28;20030;-66
2023/03/15 01:03:46;;;;;;;2.78;1.20;;;22.90;46.70;;;;;;4985923;28;20031;-66
2023/03/15 01:06:14;;;;;;;2.47;1.30;;;22.90;46.70;;;;;;4985884;28;20524;-66
2023/03/15 01:08:41;;;;;;;1.92;1.20;;;22.90;46.70;;;;;;4982837;28;20106;-66
2023/03/15 01:11:13;;;;;;;1.75;1.00;;;22.90;46.70;;;;;;4985027;28;20033;-66
2023/03/15 01:13:39;;;;;;;2.20;1.10;;;22.80;46.70;;;;;;4984430;28;20161;-66
2023/03/15 01:16:05;;;;;;;1.50;1.00;;;22.90;47.30;;;;;;4981543;28;20453;-66
2023/03/15 01:18:32;;;;;;;1.88;1.02;;;22.80;46.70;;;;;;4982872;28;20037;-66
2023/03/15 01:20:58;;;;;;;1.50;1.10;;;22.80;46.70;;;;;;4984843;28;20031;-66
2023/03/15 01:23:23;;;;;;;2.00;1.00;;;22.70;46.70;;;;;;4983902;28;20022;-66
2023/03/15 01:25:49;;;;;;;1.30;1.00;;;22.70;46.70;;;;;;4984966;28;20034;-66
2023/03/15 01:28:15;;;;;;;1.92;1.23;;;22.80;46.80;;;;;;4982604;28;20061;-65
2023/03/15 01:30:48;;;;;;;2.08;1.00;;;22.70;46.80;;;;;;4982934;28;20031;-66
2023/03/15 01:33:14;;;;;;;1.60;0.90;;;22.70;46.80;;;;;;4984885;28;20390;-66
2023/03/15 01:35:39;;;;;;;1.90;1.08;;;22.70;46.80;;;;;;4982127;28;20023;-66
2023/03/15 01:38:05;;;;;;;1.52;1.00;;;22.70;46.80;;;;;;4983526;28;20037;-66
2023/03/15 01:40:30;;;;;;;2.30;1.10;;;22.70;46.90;;;;;;4985067;28;20499;-66
2023/03/15 01:43:05;;;;;;;1.58;1.00;;;22.60;46.90;;;;;;4985349;28;20066;-66
2023/03/15 01:45:52;;;;;;;2.33;1.00;;;22.60;46.90;;;;;;4984455;28;20030;-66
2023/03/15 01:48:21;;;;;;;1.27;0.90;;;22.60;46.90;;;;;;4983564;28;20406;-65
2023/03/15 01:50:48;;;;;;;1.88;0.95;;;22.60;46.90;;;;;;4983181;28;20023;-66
2023/03/15 01:53:14;;;;;;;2.03;1.00;;;22.60;46.90;;;;;;4983423;28;20037;-66
2023/03/15 01:55:40;;;;;;;1.13;0.75;;;22.60;46.90;;;;;;4982753;28;20077;-66
2023/03/15 01:58:07;;;;;;;1.35;0.90;;;22.50;46.90;;;;;;4983230;28;20089;-66
2023/03/15 02:00:33;;;;;;;1.83;1.08;;;22.50;46.90;;;;;;4984111;28;20035;-66
2023/03/15 02:03:07;;;;;;;1.52;1.00;;;22.50;46.90;;;;;;4996857;28;20394;-65
2023/03/15 02:05:37;;;;;;;1.80;0.90;;;22.50;47.00;;;;;;4980949;28;20098;-66
2023/03/15 02:08:03;;;;;;;;;;;22.50;47.00;;;;;;4981028;28;20026;-66
2023/03/15 02:10:42;;;;;;;1.15;0.80;;;22.50;47.00;;;;;;4983561;28;19913;-66
2023/03/15 02:13:08;;;;;;;1.33;1.00;;;22.50;47.00;;;;;;4986231;28;20544;-66
2023/03/15 02:15:33;;;;;;;1.60;0.80;;;22.40;47.00;;;;;;4980607;28;20027;-66
2023/03/15 02:17:59;;;;;;;0.93;0.73;;;22.40;47.00;;;;;;4983711;28;20034;-66
2023/03/15 02:20:42;;;;;;;1.92;0.88;;;22.40;47.00;;;;;;4981376;28;20498;-66
2023/03/15 02:23:11;;;;;;;1.50;0.90;;;22.40;47.00;;;;;;4982930;28;20042;-66
2023/03/15 02:25:57;;;;;;;1.20;0.80;;;22.40;47.00;;;;;;4983047;28;20122;-66
2023/03/15 02:28:23;;;;;;;1.27;0.80;;;22.30;47.00;;;;;;4979374;28;20089;-66
2023/03/15 02:30:49;;;;;;;1.88;1.00;;;22.40;47.10;;;;;;4980585;28;20031;-66
2023/03/15 02:33:51;;;;;;;1.05;0.70;;;22.30;47.10;;;;;;4985404;28;20099;-66
2023/03/15 02:36:23;;;;;;;2.08;0.90;;;22.30;47.10;;;;;;4971194;28;20031;-67
2023/03/15 02:38:50;;;;;;;1.35;0.77;;;22.30;47.10;;;;;;4982179;28;20035;-67
2023/03/15 02:41:24;;;;;;;0.93;0.70;;;22.30;47.10;;;;;;4994569;28;20027;-67
2023/03/15 02:43:54;;;;;;;0.88;0.80;;;22.30;47.10;;;;;;4988453;28;20070;-67
2023/03/15 02:46:20;;;;;;;1.02;0.80;;;22.30;47.10;;;;;;4981700;28;20363;-67
2023/03/15 02:48:46;;;;;;;0.93;0.70;;;22.30;47.10;;;;;;4988551;28;20023;-67
2023/03/15 02:51:27;;;;;;;1.02;0.77;;;22.30;47.10;;;;;;4982159;28;20067;-67
2023/03/15 02:53:53;;;;;;;1.00;0.70;;;22.20;47.10;;;;;;4983251;28;20023;-67
2023/03/15 02:56:19;;;;;;;0.70;0.70;;;22.20;47.10;;;;;;4982693;28;20027;-67
2023/03/15 02:58:44;;;;;;;1.15;0.90;;;22.20;47.10;;;;;;4981149;28;20518;-66
2023/03/15 03:01:12;;;;;;;1.15;0.70;;;22.20;47.20;;;;;;4982828;28;20054;-66
2023/03/15 03:03:39;;;;;;;1.20;0.75;;;22.20;47.20;;;;;;4984572;28;20022;-66
2023/03/15 03:06:05;;;;;;;1.10;0.63;;;22.20;47.20;;;;;;4984903;28;20467;-66
2023/03/15 03:08:31;;;;;;;1.15;0.80;;;22.20;47.20;;;;;;4983007;28;20042;-66
2023/03/15 03:10:56;;;;;;;1.75;0.85;;;22.20;47.20;;;;;;4988325;28;20036;-66
2023/03/15 03:13:22;;;;;;;1.40;0.90;;;22.10;47.20;;;;;;4984260;28;20038;-65
2023/03/15 03:15:57;;;;;;;1.08;0.80;;;22.10;47.20;;;;;;4982033;28;20113;-66
2023/03/15 03:18:27;;;;;;;0.77;0.70;;;22.10;47.20;;;;;;4981449;28;20034;-66
2023/03/15 03:20:57;;;;;;;0.70;0.50;;;22.10;47.30;;;;;;4982766;28;20364;-66
2023/03/15 03:23:25;;;;;;;0.70;0.63;;;22.10;47.30;;;;;;4980981;28;20402;-68
2023/03/15 03:25:52;;;;;;;1.17;0.70;;;22.10;47.30;;;;;;4982271;28;20034;-66
2023/03/15 03:28:25;;;;;;;1.20;0.68;;;22.10;47.30;;;;;;4982271;28;20106;-66
2023/03/15 03:30:53;;;;;;;0.82;0.60;;;22.10;47.30;;;;;;4984231;28;20502;-67
2023/03/15 03:33:20;;;;;;;1.13;0.80;;;22.00;47.30;;;;;;4983687;28;20031;-66
2023/03/15 03:35:45;;;;;;;0.70;0.60;;;22.00;47.30;;;;;;4982025;28;20100;-67
2023/03/15 03:38:11;;;;;;;0.70;0.60;;;22.00;47.30;;;;;;4984237;28;20054;-67
2023/03/15 03:40:38;;;;;;;0.63;0.60;;;22.00;47.30;;;;;;4983039;28;20023;-67
2023/03/15 03:43:04;;;;;;;1.20;0.70;;;22.00;47.30;;;;;;4980913;28;20058;-68
2023/03/15 03:45:29;;;;;;;1.40;0.80;;;22.00;47.40;;;;;;4982457;28;20120;-68
2023/03/15 03:47:55;;;;;;;1.00;0.70;;;22.00;47.40;;;;;;4981543;28;20110;-67
2023/03/15 03:50:21;;;;;;;1.33;0.73;;;22.00;47.40;;;;;;4981262;28;20023;-67
2023/03/15 03:52:46;;;;;;;0.60;0.50;;;21.90;47.40;;;;;;4982294;28;20053;-67
2023/03/15 03:55:12;;;;;;;1.00;0.70;;;21.90;47.40;;;;;;4983562;28;20042;-67
2023/03/15 03:57:39;;;;;;;1.00;0.70;;;21.90;47.40;;;;;;4983124;28;20229;-67
2023/03/15 04:00:06;;;;;;;0.80;0.70;;;21.90;47.40;;;;;;4981038;28;20482;-67
2023/03/15 04:02:32;;;;;;;0.77;0.55;;;21.90;47.50;;;;;;4981688;28;20041;-67
2023/03/15 04:04:58;;;;;;;1.38;0.70;;;21.90;47.40;;;;;;4983556;28;20058;-67
2023/03/15 04:07:24;;;;;;;1.27;0.80;;;21.90;48.10;;;;;;4981705;28;20058;-67
2023/03/15 04:09:50;;;;;;;0.95;0.70;;;21.90;47.50;;;;;;4978881;28;20027;-67
2023/03/15 04:12:15;;;;;;;1.00;0.55;;;21.90;47.50;;;;;;4984408;28;20026;-67
2023/03/15 04:14:41;;;;;;;0.95;0.70;;;21.90;48.10;;;;;;4981748;28;20031;-69
2023/03/15 04:17:07;;;;;;;0.85;0.68;;;21.90;47.50;;;;;;4981971;28;20031;-68
2023/03/15 04:19:33;;;;;;;1.20;0.70;;;21.90;47.60;;;;;;4980066;28;20026;-68
2023/03/15 04:22:05;;;;;;;0.63;0.50;;;21.80;47.50;;;;;;4982975;28;20104;-67
2023/03/15 04:24:32;;;;;;;0.63;0.63;;;21.90;47.60;;;;;;4981793;28;20488;-66
2023/03/15 04:26:57;;;;;;;0.90;0.50;;;21.80;47.50;;;;;;4986484;28;20061;-68
2023/03/15 04:29:23;;;;;;;0.52;0.52;;;21.80;47.60;;;;;;4983576;28;20026;-68
2023/03/15 04:31:49;;;;;;;0.60;0.50;;;21.80;47.60;;;;;;4983504;28;20023;-68
2023/03/15 04:34:14;;;;;;;0.60;0.50;;;21.80;47.60;;;;;;4986787;28;20038;-67
2023/03/15 04:36:41;;;;;;;0.75;0.60;;;21.80;47.60;;;;;;4982333;28;20023;-66
2023/03/15 04:39:07;;;;;;;0.75;0.60;;;21.80;47.60;;;;;;4985329;28;20026;-67
2023/03/15 04:41:33;;;;;;;0.68;0.60;;;21.80;47.60;;;;;;4983564;28;20038;-67
2023/03/15 04:44:00;;;;;;;0.50;0.50;;;21.70;47.60;;;;;;4985038;28;20027;-67
2023/03/15 04:46:25;;;;;;;0.80;0.60;;;21.70;47.60;;;;;;4983117;28;20099;-66
2023/03/15 04:48:51;;;;;;;1.33;0.70;;;21.70;47.60;;;;;;4985101;28;20110;-67
2023/03/15 04:51:16;;;;;;;0.90;0.60;;;21.70;47.60;;;;;;4982947;28;20022;-66
2023/03/15 04:53:42;;;;;;;0.68;0.68;;;21.70;47.60;;;;;;4984093;28;20034;-67
2023/03/15 04:56:08;;;;;;;0.55;0.50;;;21.70;47.60;;;;;;4982444;28;20022;-66
2023/03/15 04:58:33;;;;;;;0.50;0.50;;;21.70;47.70;;;;;;4985943;28;20482;-67
2023/03/15 05:00:59;;;;;;;0.65;0.50;;;21.70;47.60;;;;;;4981291;28;20029;-67
2023/03/15 05:03:24;;;;;;;0.75;0.60;;;21.70;47.70;;;;;;4985673;28;20049;-67
2023/03/15 05:05:50;;;;;;;0.90;0.60;;;21.70;47.70;;;;;;4984722;28;20438;-67
2023/03/15 05:08:16;;;;;;;1.27;0.70;;;21.70;47.70;;;;;;4986291;28;20383;-66
2023/03/15 05:10:41;;;;;;;0.85;0.70;;;21.70;47.80;;;;;;4987328;28;20089;-67
2023/03/15 05:13:07;;;;;;;0.50;0.43;;;21.70;47.80;;;;;;4985669;28;20054;-67
2023/03/15 05:15:32;;;;;;;0.75;0.52;;;21.60;47.80;;;;;;4983876;28;20058;-67
2023/03/15 05:17:58;;;;;;;1.50;0.55;;;21.70;47.80;;;;;;4981541;28;20038;-67
2023/03/15 05:20:24;;;;;;;0.50;0.47;;;21.70;47.90;;;;;;4981146;28;20066;-67
2023/03/15 05:22:52;;;;;;;1.00;0.60;;;21.70;47.80;;;;;;4984602;28;20605;-67
2023/03/15 05:25:17;;;;;;;0.95;0.60;;;21.60;47.80;;;;;;4985001;28;20030;-67
2023/03/15 05:27:45;;;;;;;1.23;0.70;;;21.60;47.80;;;;;;4982983;28;20085;-67
2023/03/15 05:30:13;;;;;;;1.08;0.60;;;21.60;47.80;;;;;;4985090;28;20030;-68
2023/03/15 05:32:38;;;;;;;1.05;0.70;;;21.60;47.80;;;;;;4984068;28;20490;-66
2023/03/15 05:35:05;;;;;;;0.98;0.88;;;21.60;47.80;;;;;;4999522;28;20027;-66
2023/03/15 05:37:32;;;;;;;1.08;0.70;;;21.60;47.90;;;;;;4984372;28;20018;-67
2023/03/15 05:39:58;;;;;;;1.08;0.60;;;21.60;47.90;;;;;;4983905;28;20038;-66
2023/03/15 05:42:28;;;;;;;1.25;0.63;;;21.60;47.90;;;;;;4982711;28;20063;-67
2023/03/15 05:44:54;;;;;;;0.77;0.60;;;21.60;47.90;;;;;;4982158;28;20035;-66
2023/03/15 05:47:21;;;;;;;1.30;0.60;;;21.60;47.90;;;;;;4981147;28;20501;-67
2023/03/15 05:49:46;;;;;;;1.00;0.63;;;21.60;47.90;;;;;;4983228;28;20031;-66
2023/03/15 05:52:12;;;;;;;0.63;0.60;;;21.60;48.00;;;;;;4985484;28;20050;-66
2023/03/15 05:54:38;;;;;;;0.85;0.70;;;21.60;47.90;;;;;;4990240;28;20033;-67
2023/03/15 05:57:04;;;;;;;1.23;0.80;;;21.60;47.90;;;;;;4984336;28;20371;-67
2023/03/15 05:59:29;;;;;;;1.38;0.63;;;21.60;47.90;;;;;;4985673;28;20045;-66
2023/03/15 06:01:56;;;;;;;0.65;0.60;;;21.60;47.90;;;;;;4983924;28;20038;-67
2023/03/15 06:04:21;;;;;;;1.05;0.60;;;21.60;48.00;;;;;;4984615;28;20038;-67
2023/03/15 06:06:47;;;;;;;0.60;0.60;;;21.60;48.00;;;;;;4983785;28;20165;-67
2023/03/15 06:09:13;;;;;;;0.75;0.50;;;21.60;48.00;;;;;;4983358;28;20027;-67
2023/03/15 06:11:38;;;;;;;1.70;0.60;;;21.50;48.50;;;;;;4982616;28;20479;-67
2023/03/15 06:14:04;;;;;;;0.90;0.60;;;21.50;48.00;;;;;;4985312;28;20037;-67
2023/03/15 06:16:29;;;;;;;0.88;0.70;;;21.50;48.00;;;;;;4989597;28;20037;-67
2023/03/15 06:18:55;;;;;;;0.63;0.50;;;21.50;48.10;;;;;;4982095;28;20120;-66
2023/03/15 06:21:20;;;;;;;0.95;0.60;;;21.50;48.10;;;;;;4984228;28;20137;-67
2023/03/15 06:23:46;;;;;;;1.13;0.50;;;21.50;48.60;;;;;;4984470;28;20030;-65
2023/03/15 06:26:13;;;;;;;1.08;0.70;;;21.50;48.60;;;;;;4980600;28;20125;-67
2023/03/15 06:28:40;;;;;;;1.17;0.60;;;21.50;48.50;;;;;;4983670;28;20069;-67
2023/03/15 06:31:10;;;;;;;0.98;0.50;;;21.50;48.50;;;;;;4985827;28;20034;-66
2023/03/15 06:33:36;;;;;;;1.10;0.52;;;21.50;49.00;;;;;;4983487;28;20045;-66
2023/03/15 06:36:02;;;;;;;0.82;0.60;;;21.50;48.50;;;;;;4995174;28;20151;-66
2023/03/15 06:38:28;;;;;;;0.70;0.50;;;21.50;48.50;;;;;;4983319;28;20033;-66
2023/03/15 06:40:55;;;;;;;1.30;0.60;;;21.50;48.40;;;;;;4981960;28;20034;-66
2023/03/15 06:43:21;;;;;;;1.00;0.60;;;21.50;48.40;;;;;;4982733;28;20057;-66
2023/03/15 06:45:47;;;;;;;0.65;0.50;;;21.50;48.40;;;;;;4982024;28;20360;-67
2023/03/15 06:48:13;;;;;;;1.75;0.60;;;21.50;48.40;;;;;;4985119;28;20029;-67
2023/03/15 06:50:39;;;;;;;1.58;0.70;;;21.50;48.30;;;;;;4980728;28;20026;-67
2023/03/15 06:53:05;;;;;;;0.90;0.70;;;21.50;48.40;;;;;;4982933;28;20391;-66
2023/03/15 06:55:30;;;;;;;1.58;0.70;;;21.50;48.40;;;;;;4979706;28;20041;-66
2023/03/15 06:57:56;;;;;;;2.30;0.73;;;21.50;48.40;;;;;;4988061;28;20058;-67
2023/03/15 07:00:21;;;;;;;1.02;0.63;;;21.50;48.40;;;;;;4981545;28;20455;-67
2023/03/15 07:02:47;;;;;;;0.68;0.57;;;21.40;48.30;;;;;;4983115;28;20548;-67
2023/03/15 07:05:13;;;;;;;0.93;0.60;;;21.50;48.40;;;;;;4987622;28;20498;-67
2023/03/15 07:07:39;;;;;;;0.93;0.60;;;21.50;48.40;;;;;;4997645;28;20018;-67
2023/03/15 07:10:05;;;;;;;1.20;0.70;;;21.50;48.30;;;;;;4981701;28;20113;-67
2023/03/15 07:12:31;;;;;;;1.27;0.68;;;21.40;48.30;;;;;;4979483;28;20030;-67
2023/03/15 07:14:56;;;;;;;1.10;0.50;;;21.40;48.30;;;;;;4983785;28;20378;-67
2023/03/15 07:17:22;;;;;;;0.75;0.50;;;21.40;48.40;;;;;;4984166;28;20134;-67
2023/03/15 07:19:48;;;;;;;1.40;0.80;;;21.40;48.40;;;;;;4985242;28;20050;-67
2023/03/15 07:22:13;;;;;;;1.00;0.60;;;21.40;48.40;;;;;;4979933;28;20027;-67
2023/03/15 07:24:39;;;;;;;0.60;0.50;;;21.40;48.40;;;;;;4983538;28;20027;-67
2023/03/15 07:27:05;;;;;;;1.05;0.60;;;21.40;48.50;;;;;;4979845;28;20098;-67
2023/03/15 07:29:30;;;;;;;1.52;0.50;;;21.40;48.50;;;;;;4983084;28;20026;-66
2023/03/15 07:31:56;;;;;;;1.25;0.60;;;21.40;48.60;;;;;;4984853;28;20041;-67
2023/03/15 07:34:22;;;;;;;1.33;0.60;;;21.40;48.50;;;;;;4979301;28;20171;-67
2023/03/15 07:36:47;;;;;;;1.25;0.70;;;21.40;48.50;;;;;;4981779;28;20038;-67
2023/03/15 07:39:14;;;;;;;1.30;0.60;;;21.40;48.60;;;;;;4981840;28;20550;-67
2023/03/15 07:41:40;;;;;;;1.35;0.75;;;21.40;48.60;;;;;;4984228;28;20029;-67
2023/03/15 07:44:06;;;;;;;1.23;0.70;;;21.40;48.60;;;;;;4985267;28;20022;-67
2023/03/15 07:46:32;;;;;;;0.70;0.50;;;21.40;48.60;;;;;;4983002;28;20130;-67
2023/03/15 07:48:58;;;;;;;1.48;0.70;;;21.40;48.60;;;;;;4986785;28;20486;-67
2023/03/15 07:51:23;;;;;;;1.90;0.75;;;21.40;48.70;;;;;;4999126;28;20022;-67
2023/03/15 07:53:50;;;;;;;1.40;0.70;;;21.40;48.70;;;;;;4981168;28;20077;-67
2023/03/15 07:56:15;;;;;;;1.02;0.70;;;21.40;48.70;;;;;;4984202;28;20109;-67
2023/03/15 07:58:41;;;;;;;1.33;0.70;;;21.40;48.70;;;;;;4981590;28;20105;-67
2023/03/15 08:01:06;;;;;;;1.38;0.70;;;21.40;48.70;;;;;;4982685;28;20475;-67
2023/03/15 08:03:32;;;;;;;1.02;0.80;;;21.40;48.70;;;;;;4984969;28;20062;-67
2023/03/15 08:05:58;;;;;;;1.85;0.80;;;21.40;48.70;;;;;;4986231;28;20026;-67
2023/03/15 08:08:23;;;;;;;1.20;0.70;;;21.40;48.70;;;;;;4987753;28;20097;-67
2023/03/15 08:10:49;;;;;;;0.75;0.50;;;21.40;48.70;;;;;;4992321;28;20036;-67
2023/03/15 08:13:14;;;;;;;1.33;0.70;;;21.30;48.70;;;;;;4986246;28;20038;-67
2023/03/15 08:15:40;;;;;;;1.40;0.80;;;21.40;48.70;;;;;;4985870;28;20081;-66
2023/03/15 08:18:06;;;;;;;0.68;0.60;;;21.40;48.70;;;;;;4984809;28;20364;-67
2023/03/15 08:20:34;;;;;;;1.15;0.60;;;21.40;49.20;;;;;;4985192;28;20160;-67
2023/03/15 08:23:00;;;;;;;1.02;0.52;;;21.40;48.70;;;;;;4990464;28;20034;-66
2023/03/15 08:25:26;;;;;;;0.45;0.45;;;21.40;48.70;;;;;;4998282;28;20121;-67
2023/03/15 08:27:52;;;;;;;1.30;0.60;;;21.40;48.70;;;;;;4985545;28;20039;-66
2023/03/15 08:30:19;;;;;;;1.27;0.60;;;21.40;48.70;;;;;;4984708;28;20088;-67
2023/03/15 08:32:46;;;;;;;1.48;0.90;;;21.40;48.70;;;;;;4986097;28;20030;-66
2023/03/15 08:35:13;;;;;;;1.52;0.80;;;21.40;48.70;;;;;;4986788;28;20617;-66
2023/03/15 08:37:39;;;;;;;1.58;0.70;;;21.40;48.90;;;;;;4988561;28;20455;-67
2023/03/15 08:40:10;;;;;;;1.25;0.70;;;21.40;49.40;;;;;;4991252;28;20026;-67
2023/03/15 08:42:36;;;;;;;1.92;0.57;;;21.40;48.90;;;;;;4985851;28;20080;-66
2023/03/15 08:45:06;;;;;;;0.68;0.65;;;21.40;49.00;;;;;;4985200;28;20057;-66
2023/03/15 08:47:36;;;;;;;1.13;0.70;;;21.40;49.00;;;;;;4985486;28;20438;-66
2023/03/15 08:50:10;;;;;;;0.90;0.60;;;21.40;49.00;;;;;;4985647;28;20146;-67
2023/03/15 08:52:37;;;;;;;1.75;0.80;;;21.40;49.10;;;;;;4990698;28;20151;-66
2023/03/15 08:55:03;;;;;;;1.13;0.70;;;21.40;49.10;;;;;;4983091;28;20039;-66
2023/03/15 08:57:31;;;;;;;1.58;0.70;;;21.40;49.20;;;;;;4985772;28;20022;-66
2023/03/15 09:00:06;;;;;;;1.52;0.70;;;21.40;49.20;;;;;;5000760;28;20034;-66
2023/03/15 09:02:31;;;;;;;0.88;0.57;;;21.40;49.20;;;;;;4984234;28;20027;-67
2023/03/15 09:04:57;;;;;;;0.90;0.60;;;21.40;49.20;;;;;;4981679;28;20483;-66
2023/03/15 09:07:22;;;;;;;1.92;0.70;;;21.40;49.30;;;;;;4985650;28;20036;-67
2023/03/15 09:09:48;;;;;;;1.70;0.80;;;21.40;49.20;;;;;;4984259;28;20026;-66
2023/03/15 09:12:15;;;;;;;1.52;0.73;;;21.40;49.20;;;;;;4984663;28;20112;-66
2023/03/15 09:14:41;;;;;;;1.50;0.73;;;21.40;49.30;;;;;;4983840;28;20019;-67
2023/03/15 09:17:07;;;;;;;1.30;0.70;;;21.50;49.30;;;;;;4983053;28;20035;-68
2023/03/15 09:19:33;;;;;;;1.38;0.70;;;21.50;49.30;;;;;;4987184;28;20394;-69
2023/03/15 09:21:58;;;;;;;1.27;0.60;;;21.40;49.20;;;;;;4986565;28;20027;-69
2023/03/15 09:24:24;;;;;;;1.15;0.68;;;21.50;49.30;;;;;;5000314;28;20031;-69
2023/03/15 09:26:50;;;;;;;1.50;0.70;;;21.50;49.30;;;;;;4983508;28;20561;-68
2023/03/15 09:29:15;;;;;;;1.38;0.80;;;21.50;49.30;;;;;;4985477;28;20041;-69
2023/03/15 09:31:41;;;;;;;1.45;0.68;;;21.50;49.30;;;;;;4984090;28;20398;-68
2023/03/15 09:34:06;;;;;;;1.77;0.95;;;21.50;49.30;;;;;;5000852;28;20161;-68
2023/03/15 09:36:32;;;;;;;1.23;0.60;;;21.50;49.30;;;;;;4984925;28;20039;-68
2023/03/15 09:39:00;;;;;;;1.25;0.57;;;21.50;49.30;;;;;;4983569;28;20038;-67
2023/03/15 09:41:48;;;;;;;0.95;0.65;;;21.50;49.30;;;;;;4985196;28;20026;-67
2023/03/15 09:44:38;;;;;;;1.05;0.60;;;21.50;49.30;;;;;;4983663;28;20035;-67
2023/03/15 09:47:21;;;;;;;1.10;0.70;;;21.50;49.20;;;;;;4989408;28;20018;-67
2023/03/15 09:50:06;;;;;;;1.33;0.70;;;21.50;49.20;;;;;;4984642;28;20086;-66
2023/03/15 09:52:34;;;;;;;1.25;0.73;;;21.50;49.20;;;;;;4984594;28;20665;-66
2023/03/15 09:55:20;;;;;;;2.30;0.80;;;21.50;49.20;;;;;;4983296;28;20475;-65
2023/03/15 09:57:59;;;;;;;1.00;0.70;;;21.60;49.20;;;;;;4983641;28;20090;-66
2023/03/15 10:00:50;;;;;;;0.98;0.50;;;21.50;49.20;;;;;;4981035;28;20106;-66
2023/03/15 10:03:34;;;;;;;1.33;0.70;;;21.60;49.30;;;;;;4984960;28;20117;-66
2023/03/15 10:06:06;;;;;;;0.70;0.52;;;21.60;49.30;;;;;;4999239;28;20030;-66
2023/03/15 10:08:33;;;;;;;0.82;0.60;;;21.60;49.20;;;;;;4986059;28;20038;-65
2023/03/15 10:11:01;;;;;;;1.02;0.60;;;21.60;49.30;;;;;;4984033;28;20776;-65
2023/03/15 10:13:41;;;;;;;0.77;0.60;;;21.60;49.30;;;;;;4984182;28;20085;-66
2023/03/15 10:16:15;;;;;;;0.80;0.60;;;21.60;49.20;;;;;;4983953;28;20023;-65
2023/03/15 10:19:02;;;;;;;1.17;0.60;;;21.60;49.30;;;;;;4983837;28;20034;-66
2023/03/15 10:21:38;;;;;;;0.60;0.50;;;21.60;49.80;;;;;;4982213;28;20521;-66
2023/03/15 10:24:09;;;;;;;1.27;0.70;;;21.70;49.40;;;;;;4980811;28;20030;-66
2023/03/15 10:26:38;;;;;;;1.17;0.60;;;21.60;49.30;;;;;;4984047;28;20590;-66
2023/03/15 10:29:14;;;;;;;1.20;0.60;;;21.70;49.40;;;;;;4985051;28;20023;-66
2023/03/15 10:31:45;;;;;;;0.93;0.60;;;21.60;49.30;;;;;;4983912;28;20182;-66
2023/03/15 10:34:15;;;;;;;0.90;0.60;;;21.60;49.30;;;;;;4983324;28;20033;-66
2023/03/15 10:36:49;;;;;;;0.90;0.70;;;21.70;49.40;;;;;;4983106;28;20379;-67
2023/03/15 10:39:14;;;;;;;0.80;0.65;;;21.70;49.40;;;;;;4982367;28;20026;-67
2023/03/15 10:41:46;;;;;;;0.40;0.40;;;21.70;49.40;;;;;;4982299;28;20165;-67
2023/03/15 10:44:20;;;;;;;0.75;0.50;;;21.70;49.40;;;;;;4983703;28;20556;-67
2023/03/15 10:47:11;;;;;;;0.60;0.60;;;21.70;49.50;;;;;;4981473;28;20046;-67
2023/03/15 10:49:39;;;;;;;0.65;0.50;;;21.70;49.40;;;;;;4983687;28;20038;-67
2023/03/15 10:52:23;;;;;;;0.88;0.60;;;21.70;49.40;;;;;;4983711;28;20482;-65
2023/03/15 10:54:51;;;;;;;1.25;0.77;;;21.70;49.40;;;;;;4979100;28;20098;-67
2023/03/15 10:57:20;;;;;;;1.35;0.70;;;21.80;49.50;;;;;;4996288;28;20096;-66
2023/03/15 10:59:59;;;;;;;0.80;0.60;;;21.80;49.40;;;;;;4983727;28;20462;-66
2023/03/15 11:02:25;;;;;;;0.98;0.52;;;21.80;49.50;;;;;;4985838;28;20491;-66
2023/03/15 11:05:28;;;;;;;0.55;0.50;;;21.80;49.40;;;;;;4983150;28;20050;-66
2023/03/15 11:07:58;;;;;;;0.88;0.50;;;21.80;49.50;;;;;;4973323;28;20066;-66
2023/03/15 11:10:26;;;;;;;0.70;0.50;;;21.80;49.90;;;;;;4986791;28;20031;-66
2023/03/15 11:13:18;;;;;;;0.47;0.47;;;21.80;49.40;;;;;;4983043;28;20556;-66
2023/03/15 11:16:17;;;;;;;0.65;0.50;;;21.80;49.40;;;;;;4985044;28;20320;-66
2023/03/15 11:18:56;;;;;;;1.13;0.52;;;21.80;49.40;;;;;;4978468;28;20042;-66
2023/03/15 11:21:32;;;;;;;0.52;0.50;;;21.90;49.40;;;;;;4985567;28;20042;-65
2023/03/15 11:24:00;;;;;;;0.70;0.50;;;21.90;49.40;;;;;;4980053;28;20026;-65
2023/03/15 11:26:28;;;;;;;0.63;0.50;;;21.90;49.30;;;;;;4982150;28;20105;-66
2023/03/15 11:29:11;;;;;;;1.25;0.60;;;21.90;49.30;;;;;;4980096;28;20030;-65
2023/03/15 11:31:37;;;;;;;1.00;0.60;;;21.90;49.30;;;;;;4982322;28;20030;-65
2023/03/15 11:34:37;;;;;;;0.70;0.50;;;21.90;49.30;;;;;;4986077;28;20026;-65
2023/03/15 11:37:14;;;;;;;0.80;0.50;;;21.90;49.30;;;;;;4982459;28;20042;-66
2023/03/15 11:39:51;;;;;;;0.70;0.43;;;21.90;49.30;;;;;;4990230;28;20384;-66
2023/03/15 11:42:32;;;;;;;0.82;0.50;;;21.90;49.30;;;;;;4985733;28;20037;-66
2023/03/15 11:45:03;;;;;;;0.65;0.50;;;22.00;49.30;;;;;;4983707;28;20026;-65
2023/03/15 11:47:46;;;;;;;1.13;0.80;;;21.90;49.20;;;;;;4985848;28;20085;-66
2023/03/15 11:50:15;;;;;;;0.32;0.32;;;22.00;49.20;;;;;;5001493;28;20029;-66
2023/03/15 11:52:41;;;;;;;1.63;0.50;;;22.00;49.20;;;;;;4981114;28;20023;-67
2023/03/15 11:55:21;;;;;;;0.70;0.50;;;22.00;49.20;;;;;;4986906;28;20042;-68
2023/03/15 11:57:48;;;;;;;0.52;0.40;;;22.00;49.20;;;;;;4987840;28;20034;-66
2023/03/15 12:00:14;;;;;;;0.57;0.50;;;22.00;49.10;;;;;;4984864;28;20443;-67
2023/03/15 12:03:00;;;;;;;0.95;0.50;;;22.00;49.10;;;;;;4992676;28;20061;-67
2023/03/15 12:05:49;;;;;;;0.77;0.50;;;22.00;49.10;;;;;;4984983;28;20504;-67
2023/03/15 12:08:23;;;;;;;1.15;0.52;;;22.00;49.10;;;;;;4983096;28;20129;-67
2023/03/15 12:10:50;;;;;;;0.65;0.50;;;22.00;49.00;;;;;;4985682;28;20046;-67
2023/03/15 12:13:23;;;;;;;1.05;0.60;;;22.00;49.00;;;;;;4991216;28;20030;-66
2023/03/15 12:15:50;;;;;;;0.45;0.40;;;22.00;48.90;;;;;;4984649;28;20394;-67
2023/03/15 12:18:20;;;;;;;0.40;0.40;;;22.00;49.00;;;;;;4988709;28;20027;-67
2023/03/15 12:20:56;;;;;;;0.55;0.50;;;22.00;48.90;;;;;;4987380;28;20069;-68
2023/03/15 12:23:34;;;;;;;0.98;0.60;;;22.00;49.40;;;;;;4986789;28;20077;-67
2023/03/15 12:26:02;;;;;;;1.05;0.50;;;22.00;48.90;;;;;;4985072;28;20037;-68
2023/03/15 12:28:40;;;;;;;0.73;0.50;;;22.00;48.80;;;;;;4987357;28;20026;-67
2023/03/15 12:31:14;;;;;;;0.75;0.50;;;22.00;48.80;;;;;;4985828;28;20104;-67
2023/03/15 12:33:53;;;;;;;0.43;0.40;;;22.00;48.80;;;;;;4986141;28;20379;-67
2023/03/15 12:36:40;;;;;;;1.30;0.50;;;22.00;48.70;;;;;;4984514;28;20034;-67
2023/03/15 12:39:14;;;;;;;0.60;0.50;;;22.00;48.70;;;;;;4990199;28;20101;-67
2023/03/15 12:41:42;;;;;;;0.82;0.50;;;22.00;48.70;;;;;;4982275;28;20482;-67
2023/03/15 12:44:23;;;;;;;0.98;0.60;;;22.00;48.70;;;;;;4990934;28;20035;-68
2023/03/15 12:46:48;;;;;;;0.50;0.40;;;22.00;48.70;;;;;;4984712;28;20550;-67
2023/03/15 12:49:23;;;;;;;0.95;0.50;;;22.10;48.80;;;;;;4987244;28;20093;-67
2023/03/15 12:52:03;;;;;;;1.35;0.60;;;22.00;48.70;;;;;;4983700;28;20380;-67
2023/03/15 12:54:52;;;;;;;1.10;0.60;;;22.00;48.70;;;;;;4985861;28;20030;-67
2023/03/15 12:57:30;;;;;;;0.90;0.50;;;22.10;48.70;;;;;;4997302;28;20101;-67